Time;durP1;ratioP1;P1;durP2;ratioP2;P2;SDS_P1;SDS_P2;PMS_P1;PMS_P2;Temp;Humidity;BMP_temperature;BMP_pressure;BME280_temperature;BME280_humidity;BME280_pressure;Samples;Min_cycle;Max_cycle;Signal;HPM_P1;HPM_P2
2023/09/21 00:00:14;;;;;;;;;;;22.50;55.10;;;;;;1586505;74;746;-68
2023/09/21 00:02:16;;;;;;;;;;;22.50;55.00;;;;;;1579833;74;694;-69
2023/09/21 00:04:19;;;;;;;;;;;22.50;55.10;;;;;;1568325;74;1946;-68
2023/09/21 00:06:20;;;;;;;;;;;22.50;55.10;;;;;;1578389;74;823;-68
2023/09/21 00:08:25;;;;;;;;;;;22.50;55.00;;;;;;1570198;74;1185;-67
2023/09/21 00:10:27;;;;;;;;;;;22.40;54.90;;;;;;1567331;74;1566;-68
2023/09/21 00:12:29;;;;;;;;;;;22.50;55.00;;;;;;1567788;74;759;-68
2023/09/21 00:14:35;;;;;;;;;;;22.50;55.10;;;;;;1576477;74;742;-68
2023/09/21 00:16:35;;;;;;;;;;;22.50;55.00;;;;;;1571525;74;1614;-68
2023/09/21 00:18:36;;;;;;;;;;;22.50;55.00;;;;;;1572191;74;1126;-66
2023/09/21 00:22:45;;;;;;;;;;;22.50;55.00;;;;;;1570212;74;877;-65
2023/09/21 00:24:47;;;;;;;;;;;22.40;54.90;;;;;;1570714;74;1930;-68
2023/09/21 00:26:51;;;;;;;;;;;22.40;54.90;;;;;;1578583;74;768;-69
2023/09/21 00:28:52;;;;;;;;;;;22.50;55.00;;;;;;1571785;74;1647;-69
2023/09/21 00:30:57;;;;;;;;;;;22.40;54.80;;;;;;1574880;74;680;-68
2023/09/21 00:33:00;;;;;;;;;;;22.40;54.80;;;;;;1577956;74;1027;-68
2023/09/21 00:35:09;;;;;;;;;;;22.50;54.90;;;;;;1580015;74;794;-69
2023/09/21 00:37:05;;;;;;;;;;;22.40;54.80;;;;;;1560405;74;1428;-68
2023/09/21 00:39:11;;;;;;;;;;;22.50;55.00;;;;;;1571912;74;1116;-69
2023/09/21 00:41:11;;;;;;;;;;;22.40;54.80;;;;;;1576201;74;1676;-69
2023/09/21 00:43:25;;;;;;;;;;;22.40;54.70;;;;;;1580856;74;1916;-69
2023/09/21 00:45:23;;;;;;;;;;;22.40;54.80;;;;;;1567106;74;1439;-68
2023/09/21 00:47:25;;;;;;;;;;;22.50;54.90;;;;;;1574378;74;727;-68
2023/09/21 00:49:29;;;;;;;;;;;22.50;54.90;;;;;;1564326;74;1148;-68
2023/09/21 00:51:32;;;;;;;;;;;22.40;54.70;;;;;;1570953;74;1657;-68
2023/09/21 00:53:34;;;;;;;;;;;22.40;54.70;;;;;;1571022;74;795;-68
2023/09/21 00:55:38;;;;;;;;;;;22.40;54.70;;;;;;1590824;74;754;-68
2023/09/21 00:57:40;;;;;;;;;;;22.40;54.70;;;;;;1578319;74;1163;-68
2023/09/21 00:59:45;;;;;;;;;;;22.40;54.80;;;;;;1565074;74;733;-69
2023/09/21 01:01:46;;;;;;;;;;;22.50;54.90;;;;;;1583900;74;1664;-67
2023/09/21 01:03:49;;;;;;;;;;;22.50;54.90;;;;;;1568462;74;1927;-69
2023/09/21 01:05:51;;;;;;;;;;;22.40;54.70;;;;;;1581649;74;750;-68
2023/09/21 01:07:56;;;;;;;;;;;22.40;54.70;;;;;;1572488;74;1190;-68
2023/09/21 01:09:57;;;;;;;;;;;22.40;54.70;;;;;;1575987;74;1627;-68
2023/09/21 01:11:59;;;;;;;;;;;22.40;54.70;;;;;;1569805;74;764;-69
2023/09/21 01:14:01;;;;;;;;;;;22.40;54.70;;;;;;1574410;74;792;-67
2023/09/21 01:16:04;;;;;;;;;;;22.40;54.70;;;;;;1573105;74;772;-68
2023/09/21 01:18:08;;;;;;;;;;;22.40;54.80;;;;;;1574160;74;1141;-68
2023/09/21 01:20:23;;;;;;;;;;;22.40;54.70;;;;;;1580112;74;1662;-68
2023/09/21 01:22:25;;;;;;;;;;;22.40;54.70;;;;;;1569719;74;701;-67
2023/09/21 01:24:27;;;;;;;;;;;22.40;54.70;;;;;;1570461;74;1936;-68
2023/09/21 01:26:29;;;;;;;;;;;22.40;54.80;;;;;;1572675;74;804;-69
2023/09/21 01:28:31;;;;;;;;;;;22.40;54.70;;;;;;1571458;74;1099;-68
2023/09/21 01:30:34;;;;;;;;;;;22.40;54.80;;;;;;1573827;74;781;-67
2023/09/21 01:32:36;;;;;;;;;;;22.50;54.90;;;;;;1572856;74;729;-67
2023/09/21 01:34:38;;;;;;;;;;;22.40;54.80;;;;;;1569251;74;641;-68
2023/09/21 01:36:39;;;;;;;;;;;22.40;54.70;;;;;;1572600;74;744;-69
2023/09/21 01:38:46;;;;;;;;;;;22.50;54.90;;;;;;1571037;74;1099;-66
2023/09/21 01:40:48;;;;;;;;;;;22.40;54.70;;;;;;1583397;74;714;-68
2023/09/21 01:42:50;;;;;;;;;;;22.40;54.80;;;;;;1576309;74;761;-68
2023/09/21 01:44:52;;;;;;;;;;;22.40;54.70;;;;;;1569174;74;1918;-67
2023/09/21 01:46:54;;;;;;;;;;;22.40;54.70;;;;;;1575348;74;686;-68
2023/09/21 01:48:56;;;;;;;;;;;22.40;54.70;;;;;;1577335;74;1125;-69
2023/09/21 01:50:58;;;;;;;;;;;22.40;54.70;;;;;;1573014;74;817;-68
2023/09/21 01:53:00;;;;;;;;;;;22.40;54.70;;;;;;1580647;74;754;-67
2023/09/21 01:55:05;;;;;;;;;;;22.40;54.70;;;;;;1585651;74;848;-68
2023/09/21 01:57:08;;;;;;;;;;;22.40;54.70;;;;;;1581185;74;1666;-67
2023/09/21 01:59:10;;;;;;;;;;;22.40;54.70;;;;;;1572698;74;1640;-67
2023/09/21 02:01:16;;;;;;;;;;;22.40;54.70;;;;;;1577617;74;1100;-67
2023/09/21 02:03:19;;;;;;;;;;;22.40;54.80;;;;;;1566821;74;1612;-68
2023/09/21 02:05:21;;;;;;;;;;;22.50;54.90;;;;;;1564393;74;1947;-69
2023/09/21 02:07:23;;;;;;;;;;;22.40;54.70;;;;;;1577125;74;811;-68
2023/09/21 02:09:25;;;;;;;;;;;22.50;54.90;;;;;;1576019;74;1190;-68
2023/09/21 02:11:27;;;;;;;;;;;22.40;54.70;;;;;;1577704;74;795;-68
2023/09/21 02:13:29;;;;;;;;;;;22.50;54.80;;;;;;1568261;74;726;-68
2023/09/21 02:15:32;;;;;;;;;;;22.50;54.80;;;;;;1577462;74;744;-68
2023/09/21 02:17:34;;;;;;;;;;;22.40;54.70;;;;;;1571195;74;1131;-69
2023/09/21 02:19:37;;;;;;;;;;;22.40;54.70;;;;;;1579424;74;795;-69
2023/09/21 02:21:40;;;;;;;;;;;22.40;54.70;;;;;;1576435;74;746;-69
2023/09/21 02:23:42;;;;;;;;;;;22.40;54.70;;;;;;1563016;74;1921;-68
2023/09/21 02:25:44;;;;;;;;;;;22.50;54.80;;;;;;1580331;74;729;-68
2023/09/21 02:27:46;;;;;;;;;;;22.40;54.70;;;;;;1571328;74;1217;-68
2023/09/21 02:29:48;;;;;;;;;;;22.40;54.70;;;;;;1580384;74;700;-68
2023/09/21 02:31:50;;;;;;;;;;;22.40;54.70;;;;;;1576553;74;761;-67
2023/09/21 02:33:52;;;;;;;;;;;22.50;54.80;;;;;;1576584;74;739;-67
2023/09/21 02:35:54;;;;;;;;;;;22.50;54.70;;;;;;1585326;74;786;-68
2023/09/21 02:37:56;;;;;;;;;;;22.40;54.60;;;;;;1578031;74;1159;-68
2023/09/21 02:39:58;;;;;;;;;;;22.40;54.70;;;;;;1557901;74;725;-68
2023/09/21 02:42:00;;;;;;;;;;;22.40;54.70;;;;;;1573656;74;585;-68
2023/09/21 02:44:03;;;;;;;;;;;22.40;54.60;;;;;;1571608;74;1949;-68
2023/09/21 02:46:05;;;;;;;;;;;22.40;54.60;;;;;;1572457;74;829;-68
2023/09/21 02:48:07;;;;;;;;;;;22.40;54.60;;;;;;1583184;74;1150;-67
2023/09/21 02:50:15;;;;;;;;;;;22.40;54.60;;;;;;1585024;74;685;-68
2023/09/21 02:52:17;;;;;;;;;;;22.40;54.70;;;;;;1571255;74;650;-68
2023/09/21 02:54:18;;;;;;;;;;;22.40;54.60;;;;;;1572846;74;692;-68
2023/09/21 02:56:20;;;;;;;;;;;22.40;54.60;;;;;;1572695;74;658;-68
2023/09/21 02:58:22;;;;;;;;;;;22.40;54.60;;;;;;1560509;74;1579;-68
2023/09/21 03:00:29;;;;;;;;;;;22.40;54.60;;;;;;1570995;74;719;-68
2023/09/21 03:02:31;;;;;;;;;;;22.40;54.50;;;;;;1581050;74;713;-67
2023/09/21 03:04:32;;;;;;;;;;;22.40;54.60;;;;;;1584573;74;1907;-68
2023/09/21 03:06:35;;;;;;;;;;;22.40;54.60;;;;;;1573282;74;731;-68
2023/09/21 03:08:38;;;;;;;;;;;22.40;54.60;;;;;;1572901;74;1172;-69
2023/09/21 03:10:43;;;;;;;;;;;22.40;54.70;;;;;;1576961;74;873;-68
2023/09/21 03:12:48;;;;;;;;;;;22.40;54.60;;;;;;1575599;74;1805;-67
2023/09/21 03:14:50;;;;;;;;;;;22.30;54.60;;;;;;1575893;74;985;-68
2023/09/21 03:16:52;;;;;;;;;;;22.40;54.60;;;;;;1582364;74;761;-67
2023/09/21 03:18:54;;;;;;;;;;;22.40;54.50;;;;;;1579992;74;1201;-69
2023/09/21 03:20:56;;;;;;;;;;;22.40;54.50;;;;;;1572261;74;667;-68
2023/09/21 03:22:58;;;;;;;;;;;22.40;54.60;;;;;;1579894;74;716;-68
2023/09/21 03:25:00;;;;;;;;;;;22.40;54.60;;;;;;1576167;74;1921;-68
2023/09/21 03:27:02;;;;;;;;;;;22.40;54.50;;;;;;1571379;74;780;-67
2023/09/21 03:29:08;;;;;;;;;;;22.40;54.40;;;;;;1578467;74;1187;-68
2023/09/21 03:31:09;;;;;;;;;;;22.40;54.50;;;;;;1577891;74;1894;-67
2023/09/21 03:33:11;;;;;;;;;;;22.40;54.50;;;;;;1574244;74;722;-68
2023/09/21 03:35:13;;;;;;;;;;;22.40;54.40;;;;;;1572833;74;798;-67
2023/09/21 03:37:14;;;;;;;;;;;22.40;54.50;;;;;;1577919;74;732;-68
2023/09/21 03:39:19;;;;;;;;;;;22.40;54.50;;;;;;1575726;74;1113;-68
2023/09/21 03:41:20;;;;;;;;;;;22.40;54.60;;;;;;1565263;74;1684;-68
2023/09/21 03:43:23;;;;;;;;;;;22.40;54.60;;;;;;1571393;74;900;-69
2023/09/21 03:45:25;;;;;;;;;;;22.40;54.50;;;;;;1580003;74;1906;-66
2023/09/21 03:47:27;;;;;;;;;;;22.40;54.50;;;;;;1581334;74;576;-68
2023/09/21 03:49:29;;;;;;;;;;;22.40;54.50;;;;;;1579201;74;740;-69
2023/09/21 03:51:31;;;;;;;;;;;22.30;54.50;;;;;;1586155;74;674;-65
2023/09/21 03:53:33;;;;;;;;;;;22.40;54.60;;;;;;1576471;74;707;-67
2023/09/21 03:55:35;;;;;;;;;;;22.40;54.50;;;;;;1561124;74;1504;-69
2023/09/21 03:57:38;;;;;;;;;;;22.40;54.50;;;;;;1575693;74;1144;-68
2023/09/21 03:59:40;;;;;;;;;;;22.40;54.50;;;;;;1569689;74;804;-68
2023/09/21 04:01:42;;;;;;;;;;;22.30;54.50;;;;;;1583757;74;846;-67
2023/09/21 04:03:44;;;;;;;;;;;22.40;54.50;;;;;;1575153;74;789;-67
2023/09/21 04:05:46;;;;;;;;;;;22.40;54.50;;;;;;1576110;74;1935;-68
2023/09/21 04:07:52;;;;;;;;;;;22.40;54.50;;;;;;1573376;74;1252;-68
2023/09/21 04:09:51;;;;;;;;;;;22.30;54.50;;;;;;1573652;74;1883;-69
2023/09/21 04:11:56;;;;;;;;;;;22.40;54.50;;;;;;1579578;74;918;-68
2023/09/21 04:13:57;;;;;;;;;;;22.40;54.50;;;;;;1565105;74;1696;-68
2023/09/21 04:15:59;;;;;;;;;;;22.40;54.50;;;;;;1577799;74;741;-68
2023/09/21 04:18:01;;;;;;;;;;;22.40;54.50;;;;;;1572374;74;1196;-68
2023/09/21 04:20:10;;;;;;;;;;;22.30;54.50;;;;;;1572044;74;597;-68
2023/09/21 04:22:08;;;;;;;;;;;22.30;54.50;;;;;;1569117;74;1463;-67
2023/09/21 04:24:10;;;;;;;;;;;22.30;54.50;;;;;;1571047;74;705;-68
2023/09/21 04:26:13;;;;;;;;;;;22.30;54.50;;;;;;1572443;74;1935;-68
2023/09/21 04:28:15;;;;;;;;;;;22.40;54.50;;;;;;1578820;74;1150;-68
2023/09/21 04:30:17;;;;;;;;;;;22.40;54.50;;;;;;1572873;74;671;-68
2023/09/21 04:32:19;;;;;;;;;;;22.30;54.60;;;;;;1571930;74;711;-68
2023/09/21 04:34:21;;;;;;;;;;;22.30;54.60;;;;;;1572390;74;725;-68
2023/09/21 04:36:24;;;;;;;;;;;22.30;54.50;;;;;;1570380;74;748;-66
2023/09/21 04:38:26;;;;;;;;;;;22.30;54.50;;;;;;1573746;74;1154;-67
2023/09/21 04:40:28;;;;;;;;;;;22.40;54.60;;;;;;1574269;74;648;-68
2023/09/21 04:42:30;;;;;;;;;;;22.40;54.50;;;;;;1569363;74;783;-69
2023/09/21 04:44:32;;;;;;;;;;;22.40;54.50;;;;;;1577168;74;772;-67
2023/09/21 04:46:36;;;;;;;;;;;22.40;54.50;;;;;;1571413;74;789;-68
2023/09/21 04:48:39;;;;;;;;;;;22.40;54.50;;;;;;1573249;74;1120;-67
2023/09/21 04:50:45;;;;;;;;;;;22.30;54.60;;;;;;1583865;74;854;-69
2023/09/21 04:52:50;;;;;;;;;;;22.30;54.60;;;;;;1580025;74;1473;-67
2023/09/21 04:54:52;;;;;;;;;;;22.30;54.60;;;;;;1575007;74;747;-67
2023/09/21 04:56:54;;;;;;;;;;;22.40;54.60;;;;;;1580390;74;725;-69
2023/09/21 04:58:56;;;;;;;;;;;22.40;54.60;;;;;;1572830;74;1100;-68
2023/09/21 05:00:58;;;;;;;;;;;22.30;54.70;;;;;;1583890;74;801;-68
2023/09/21 05:03:00;;;;;;;;;;;22.30;54.60;;;;;;1582679;74;709;-67
2023/09/21 05:05:02;;;;;;;;;;;22.40;54.60;;;;;;1574745;74;1960;-68
2023/09/21 05:07:06;;;;;;;;;;;22.30;54.60;;;;;;1576891;74;685;-67
2023/09/21 05:09:09;;;;;;;;;;;22.30;54.60;;;;;;1578355;74;1145;-69
2023/09/21 05:11:11;;;;;;;;;;;22.40;54.60;;;;;;1581768;74;658;-68
2023/09/21 05:13:13;;;;;;;;;;;22.30;54.60;;;;;;1584072;74;661;-68
2023/09/21 05:15:15;;;;;;;;;;;22.30;54.60;;;;;;1581446;74;776;-68
2023/09/21 05:17:21;;;;;;;;;;;22.30;54.60;;;;;;1565081;74;801;-68
2023/09/21 05:19:23;;;;;;;;;;;22.40;54.60;;;;;;1567120;74;1109;-68
2023/09/21 05:21:25;;;;;;;;;;;22.30;54.70;;;;;;1578933;74;719;-68
2023/09/21 05:23:27;;;;;;;;;;;22.40;54.70;;;;;;1575278;74;799;-68
2023/09/21 05:25:31;;;;;;;;;;;22.30;54.60;;;;;;1566543;74;1923;-68
2023/09/21 05:27:32;;;;;;;;;;;22.30;54.60;;;;;;1580316;74;1141;-67
2023/09/21 05:29:36;;;;;;;;;;;22.40;54.60;;;;;;1570355;74;678;-67
2023/09/21 05:31:38;;;;;;;;;;;22.30;54.60;;;;;;1585482;74;834;-68
2023/09/21 05:33:40;;;;;;;;;;;22.40;54.60;;;;;;1584923;74;723;-67
2023/09/21 05:35:43;;;;;;;;;;;22.30;54.60;;;;;;1562085;74;684;-68
2023/09/21 05:37:45;;;;;;;;;;;22.40;54.70;;;;;;1575452;74;1656;-68
2023/09/21 05:39:48;;;;;;;;;;;22.30;54.60;;;;;;1575166;74;790;-67
2023/09/21 05:41:50;;;;;;;;;;;22.30;54.70;;;;;;1571603;74;636;-65
2023/09/21 05:43:52;;;;;;;;;;;22.40;54.70;;;;;;1586787;74;643;-68
2023/09/21 05:45:54;;;;;;;;;;;22.30;54.70;;;;;;1577349;74;1916;-68
2023/09/21 05:47:56;;;;;;;;;;;22.30;54.70;;;;;;1574273;74;1564;-68
2023/09/21 05:49:58;;;;;;;;;;;22.30;54.70;;;;;;1573889;74;1045;-67
2023/09/21 05:52:01;;;;;;;;;;;22.30;54.70;;;;;;1581689;74;814;-68
2023/09/21 05:54:03;;;;;;;;;;;22.30;54.70;;;;;;1564951;74;820;-68
2023/09/21 05:56:05;;;;;;;;;;;22.40;54.70;;;;;;1579077;74;810;-67
2023/09/21 05:58:07;;;;;;;;;;;22.40;54.70;;;;;;1580725;74;1145;-69
2023/09/21 06:00:10;;;;;;;;;;;22.30;54.70;;;;;;1585464;74;734;-68
2023/09/21 06:02:13;;;;;;;;;;;22.30;54.80;;;;;;1580925;74;778;-68
2023/09/21 06:04:16;;;;;;;;;;;22.30;54.80;;;;;;1585119;74;751;-68
2023/09/21 06:06:19;;;;;;;;;;;22.30;54.80;;;;;;1537404;76;1920;-68
2023/09/21 06:08:21;;;;;;;;;;;22.30;54.90;;;;;;1526083;76;1189;-68
2023/09/21 06:10:23;;;;;;;;;;;22.40;54.90;;;;;;1516696;78;803;-68
2023/09/21 06:12:27;;;;;;;;;;;22.40;54.90;;;;;;1518676;77;723;-68
2023/09/21 06:14:29;;;;;;;;;;;22.40;55.00;;;;;;1532192;76;2149;-68
2023/09/21 06:16:32;;;;;;;;;;;22.40;55.00;;;;;;1504116;77;648;-68
2023/09/21 06:18:35;;;;;;;;;;;22.30;55.00;;;;;;1533918;76;1150;-66
2023/09/21 06:20:37;;;;;;;;;;;22.40;55.10;;;;;;1525760;76;753;-68
2023/09/21 06:22:39;;;;;;;;;;;22.30;55.10;;;;;;1540704;76;680;-68
2023/09/21 06:24:42;;;;;;;;;;;22.40;55.20;;;;;;1519881;77;760;-67
2023/09/21 06:26:44;;;;;;;;;;;22.40;55.30;;;;;;1524075;76;2073;-68
2023/09/21 06:28:49;;;;;;;;;;;22.40;55.20;;;;;;1500966;77;1141;-66
2023/09/21 06:30:51;;;;;;;;;;;22.40;55.40;;;;;;1538405;76;816;-68
2023/09/21 06:32:55;;;;;;;;;;;22.40;55.40;;;;;;1503909;77;799;-68
2023/09/21 06:34:57;;;;;;;;;;;22.40;55.40;;;;;;1525779;77;719;-67
2023/09/21 06:36:59;;;;;;;;;;;22.40;55.50;;;;;;1500593;77;711;-68
2023/09/21 06:39:01;;;;;;;;;;;22.40;55.50;;;;;;1515443;78;1118;-68
2023/09/21 06:41:03;;;;;;;;;;;22.40;55.50;;;;;;1532561;76;787;-67
2023/09/21 06:43:07;;;;;;;;;;;22.40;55.60;;;;;;1507695;77;793;-69
2023/09/21 06:45:09;;;;;;;;;;;22.40;55.60;;;;;;1568567;74;1687;-67
2023/09/21 06:47:12;;;;;;;;;;;22.40;55.60;;;;;;1568923;74;1923;-68
2023/09/21 06:49:14;;;;;;;;;;;22.30;55.60;;;;;;1559365;74;1157;-68
2023/09/21 06:51:16;;;;;;;;;;;22.40;55.60;;;;;;1575100;74;799;-67
2023/09/21 06:53:18;;;;;;;;;;;22.40;55.60;;;;;;1567708;74;747;-67
2023/09/21 06:55:20;;;;;;;;;;;22.40;55.50;;;;;;1566923;75;628;-67
2023/09/21 06:57:23;;;;;;;;;;;22.40;55.60;;;;;;1564205;74;731;-67
2023/09/21 06:59:25;;;;;;;;;;;22.40;55.60;;;;;;1560154;74;1090;-68
2023/09/21 07:01:27;;;;;;;;;;;22.40;55.60;;;;;;1575543;74;655;-67
2023/09/21 07:03:29;;;;;;;;;;;22.40;55.60;;;;;;1568722;74;753;-68
2023/09/21 07:05:31;;;;;;;;;;;22.40;55.60;;;;;;1569097;74;1920;-67
2023/09/21 07:07:33;;;;;;;;;;;22.40;55.60;;;;;;1567337;74;1187;-67
2023/09/21 07:09:39;;;;;;;;;;;22.40;55.60;;;;;;1559848;74;726;-68
2023/09/21 07:11:38;;;;;;;;;;;22.30;55.70;;;;;;1562613;74;1836;-68
2023/09/21 07:13:42;;;;;;;;;;;22.40;55.60;;;;;;1562659;74;736;-67
2023/09/21 07:15:43;;;;;;;;;;;22.50;55.70;;;;;;1568652;74;1663;-67
2023/09/21 07:17:46;;;;;;;;;;;22.40;55.50;;;;;;1566558;74;1133;-68
2023/09/21 07:19:49;;;;;;;;;;;22.40;55.50;;;;;;1567884;74;836;-67
2023/09/21 07:21:53;;;;;;;;;;;22.40;55.50;;;;;;1565760;74;711;-68
2023/09/21 07:23:55;;;;;;;;;;;22.40;55.50;;;;;;1569500;74;828;-67
2023/09/21 07:25:57;;;;;;;;;;;22.40;55.40;;;;;;1561149;74;1945;-68
2023/09/21 07:27:59;;;;;;;;;;;22.50;55.40;;;;;;1571749;74;1159;-67
2023/09/21 07:30:02;;;;;;;;;;;22.50;55.40;;;;;;1563743;74;727;-68
2023/09/21 07:32:05;;;;;;;;;;;22.40;55.30;;;;;;1533056;76;824;-65
2023/09/21 07:34:08;;;;;;;;;;;22.50;55.40;;;;;;1535689;76;714;-67
2023/09/21 07:36:11;;;;;;;;;;;22.50;55.40;;;;;;1505342;77;770;-68
2023/09/21 07:38:13;;;;;;;;;;;22.50;55.40;;;;;;1512591;78;1108;-68
2023/09/21 07:40:16;;;;;;;;;;;22.50;55.40;;;;;;1528962;76;1551;-68
2023/09/21 07:42:18;;;;;;;;;;;22.50;55.50;;;;;;1527143;76;695;-67
2023/09/21 07:44:22;;;;;;;;;;;22.50;55.50;;;;;;1500127;77;762;-68
2023/09/21 07:46:23;;;;;;;;;;;22.50;55.50;;;;;;1536291;77;1936;-67
2023/09/21 07:48:27;;;;;;;;;;;22.50;55.50;;;;;;1503706;77;1143;-68
2023/09/21 07:50:34;;;;;;;;;;;22.50;55.60;;;;;;1499770;77;725;-68
2023/09/21 07:52:35;;;;;;;;;;;22.50;55.70;;;;;;1515402;77;1737;-68
2023/09/21 07:54:37;;;;;;;;;;;22.50;55.70;;;;;;1532241;76;740;-68
2023/09/21 07:56:41;;;;;;;;;;;22.60;55.70;;;;;;1532400;76;786;-68
2023/09/21 07:58:44;;;;;;;;;;;22.50;55.80;;;;;;1528163;76;1187;-68
2023/09/21 08:00:46;;;;;;;;;;;22.60;55.90;;;;;;1529879;76;670;-69
2023/09/21 08:02:48;;;;;;;;;;;22.60;56.00;;;;;;1534375;76;807;-67
2023/09/21 08:04:50;;;;;;;;;;;22.50;56.00;;;;;;1504593;77;717;-68
2023/09/21 08:06:52;;;;;;;;;;;22.60;56.10;;;;;;1530647;76;1939;-68
2023/09/21 08:08:54;;;;;;;;;;;22.60;56.20;;;;;;1533724;76;1151;-68
2023/09/21 08:10:56;;;;;;;;;;;22.50;56.30;;;;;;1537394;76;737;-67
2023/09/21 08:12:58;;;;;;;;;;;22.60;56.30;;;;;;1536296;76;667;-68
2023/09/21 08:15:00;;;;;;;;;;;22.60;56.40;;;;;;1535192;76;726;-67
2023/09/21 08:17:02;;;;;;;;;;;22.60;56.50;;;;;;1495528;77;745;-67
2023/09/21 08:19:06;;;;;;;;;;;22.60;56.60;;;;;;1531620;76;1138;-68
2023/09/21 08:21:14;;;;;;;;;;;22.60;56.70;;;;;;1532708;76;710;-68
2023/09/21 08:23:11;;;;;;;;;;;22.60;56.70;;;;;;1531516;76;1617;-67
2023/09/21 08:25:13;;;;;;;;;;;22.60;56.90;;;;;;1535446;76;708;-68
2023/09/21 08:27:15;;;;;;;;;;;22.60;57.10;;;;;;1514017;77;1932;-68
2023/09/21 08:29:21;;;;;;;;;;;22.60;57.10;;;;;;1534255;76;1080;-67
2023/09/21 08:31:21;;;;;;;;;;;22.60;57.30;;;;;;1525464;77;972;-67
2023/09/21 08:33:23;;;;;;;;;;;22.60;57.40;;;;;;1519474;76;854;-66
2023/09/21 08:35:25;;;;;;;;;;;22.60;57.40;;;;;;1523951;78;810;-68
2023/09/21 08:37:27;;;;;;;;;;;22.70;57.60;;;;;;1522367;76;1311;-68
2023/09/21 08:39:29;;;;;;;;;;;22.70;57.60;;;;;;1524304;78;860;-68
2023/09/21 08:41:32;;;;;;;;;;;22.60;57.60;;;;;;1519571;77;702;-65
2023/09/21 08:43:34;;;;;;;;;;;22.70;57.80;;;;;;1521632;77;901;-68
2023/09/21 08:45:37;;;;;;;;;;;22.60;57.80;;;;;;1523704;77;742;-67
2023/09/21 08:47:39;;;;;;;;;;;22.70;57.90;;;;;;1524927;76;1924;-68
2023/09/21 08:49:47;;;;;;;;;;;22.60;57.90;;;;;;1516433;76;798;-65
2023/09/21 08:51:49;;;;;;;;;;;22.70;58.00;;;;;;1516601;77;764;-66
2023/09/21 08:53:53;;;;;;;;;;;22.70;58.10;;;;;;1519869;77;729;-68
2023/09/21 08:55:56;;;;;;;;;;;22.70;58.10;;;;;;1521891;76;677;-67
2023/09/21 08:57:58;;;;;;;;;;;22.70;58.30;;;;;;1523301;78;1087;-68
2023/09/21 09:00:06;;;;;;;;;;;22.70;58.20;;;;;;1524004;77;816;-68
2023/09/21 09:02:04;;;;;;;;;;;22.70;58.30;;;;;;1521688;76;1643;-68
2023/09/21 09:04:06;;;;;;;;;;;22.70;58.40;;;;;;1523520;77;654;-69
2023/09/21 09:06:08;;;;;;;;;;;22.70;58.40;;;;;;1521188;76;1922;-68
2023/09/21 09:08:12;;;;;;;;;;;22.70;58.40;;;;;;1522947;77;1264;-68
2023/09/21 09:10:14;;;;;;;;;;;22.70;58.40;;;;;;1520545;77;800;-68
2023/09/21 09:12:22;;;;;;;;;;;22.70;58.40;;;;;;1519365;78;793;-67
2023/09/21 09:14:24;;;;;;;;;;;22.80;58.40;;;;;;1519770;77;743;-67
2023/09/21 09:16:30;;;;;;;;;;;22.70;58.40;;;;;;1520599;76;727;-68
2023/09/21 09:18:35;;;;;;;;;;;22.70;58.40;;;;;;1520556;76;1140;-67
2023/09/21 09:20:36;;;;;;;;;;;22.70;58.40;;;;;;1519537;78;906;-66
2023/09/21 09:22:38;;;;;;;;;;;22.80;58.40;;;;;;1512646;76;936;-68
2023/09/21 09:24:40;;;;;;;;;;;22.80;58.40;;;;;;1521373;77;824;-67
2023/09/21 09:26:42;;;;;;;;;;;22.70;58.40;;;;;;1518725;77;1927;-67
2023/09/21 09:28:46;;;;;;;;;;;22.70;58.40;;;;;;1522801;77;1127;-68
2023/09/21 09:30:48;;;;;;;;;;;22.70;58.40;;;;;;1521243;77;754;-68
2023/09/21 09:32:51;;;;;;;;;;;22.70;58.30;;;;;;1523744;77;1543;-67
2023/09/21 09:34:53;;;;;;;;;;;22.70;58.40;;;;;;1520647;76;757;-68
2023/09/21 09:36:55;;;;;;;;;;;22.70;58.40;;;;;;1524202;78;690;-67
2023/09/21 09:38:57;;;;;;;;;;;22.70;58.30;;;;;;1523145;76;1123;-68
2023/09/21 09:41:00;;;;;;;;;;;22.80;58.30;;;;;;1521846;78;761;-67
2023/09/21 09:43:02;;;;;;;;;;;22.80;58.30;;;;;;1529034;76;758;-67
2023/09/21 09:45:04;;;;;;;;;;;22.70;58.30;;;;;;1539308;76;1032;-68
2023/09/21 09:47:06;;;;;;;;;;;22.80;58.20;;;;;;1533372;76;1929;-68
2023/09/21 09:49:08;;;;;;;;;;;22.70;58.20;;;;;;1535186;76;1126;-68
2023/09/21 09:51:11;;;;;;;;;;;22.70;58.20;;;;;;1531522;76;682;-68
2023/09/21 09:53:17;;;;;;;;;;;22.80;58.20;;;;;;1531171;76;715;-68
2023/09/21 09:55:22;;;;;;;;;;;22.80;58.20;;;;;;1506247;77;699;-67
2023/09/21 09:57:22;;;;;;;;;;;22.80;58.30;;;;;;1533487;76;1597;-69
2023/09/21 09:59:26;;;;;;;;;;;22.80;58.20;;;;;;1528974;76;1064;-68
2023/09/21 10:01:29;;;;;;;;;;;22.70;58.20;;;;;;1523184;76;1502;-68
2023/09/21 10:03:36;;;;;;;;;;;22.80;58.20;;;;;;1514074;77;860;-69
2023/09/21 10:05:36;;;;;;;;;;;22.80;58.20;;;;;;1530316;76;1590;-68
2023/09/21 10:07:38;;;;;;;;;;;22.80;58.20;;;;;;1503480;77;1910;-68
2023/09/21 10:09:39;;;;;;;;;;;22.70;58.20;;;;;;1533324;76;804;-68
2023/09/21 10:11:46;;;;;;;;;;;22.80;58.20;;;;;;1499166;77;858;-68
2023/09/21 10:13:53;;;;;;;;;;;22.80;58.20;;;;;;1523484;76;554;-68
2023/09/21 10:16:01;;;;;;;;;;;22.80;58.30;;;;;;1533849;76;806;-68
2023/09/21 10:18:01;;;;;;;;;;;22.80;58.30;;;;;;1530843;76;1672;-67
2023/09/21 10:20:14;;;;;;;;;;;22.80;58.30;;;;;;1531990;76;831;-68
2023/09/21 10:22:23;;;;;;;;;;;22.80;58.40;;;;;;1525246;76;1669;-68
2023/09/21 10:24:27;;;;;;;;;;;22.80;58.50;;;;;;1516573;77;694;-68
2023/09/21 10:26:33;;;;;;;;;;;22.80;58.40;;;;;;1532422;77;805;-68
2023/09/21 10:28:39;;;;;;;;;;;22.80;58.40;;;;;;1494476;77;1929;-68
2023/09/21 10:30:41;;;;;;;;;;;22.80;58.40;;;;;;1525898;76;1491;-68
2023/09/21 10:32:50;;;;;;;;;;;22.80;58.50;;;;;;1533986;76;727;-68
2023/09/21 10:34:50;;;;;;;;;;;22.80;58.40;;;;;;1523862;76;1223;-68
2023/09/21 10:36:52;;;;;;;;;;;22.80;58.50;;;;;;1521481;77;738;-68
2023/09/21 10:39:10;;;;;;;;;;;22.80;58.60;;;;;;1519791;76;1123;-67
2023/09/21 10:41:28;;;;;;;;;;;22.80;58.50;;;;;;1515296;77;689;-68
2023/09/21 10:43:41;;;;;;;;;;;22.80;58.50;;;;;;1522549;78;709;-67
2023/09/21 10:45:47;;;;;;;;;;;22.80;58.50;;;;;;1520155;77;727;-68
2023/09/21 10:47:51;;;;;;;;;;;22.80;58.60;;;;;;1505076;77;1919;-69
2023/09/21 10:49:53;;;;;;;;;;;22.80;58.50;;;;;;1515754;78;762;-70
2023/09/21 10:51:55;;;;;;;;;;;22.90;58.60;;;;;;1513377;77;767;-67
2023/09/21 10:53:59;;;;;;;;;;;22.80;58.60;;;;;;1522845;76;784;-68
2023/09/21 10:56:01;;;;;;;;;;;22.80;58.60;;;;;;1485158;78;736;-67
2023/09/21 10:58:03;;;;;;;;;;;22.80;58.50;;;;;;1520678;77;1135;-67
2023/09/21 11:00:17;;;;;;;;;;;22.90;58.60;;;;;;1529905;76;594;-68
2023/09/21 11:02:14;;;;;;;;;;;22.80;58.40;;;;;;1519794;76;1730;-68
2023/09/21 11:04:16;;;;;;;;;;;22.80;58.10;;;;;;1515146;77;775;-70
2023/09/21 11:06:19;;;;;;;;;;;22.90;58.10;;;;;;1519755;77;750;-68
2023/09/21 11:08:24;;;;;;;;;;;22.90;57.80;;;;;;1514139;77;1922;-68
2023/09/21 11:10:26;;;;;;;;;;;22.80;57.40;;;;;;1521063;78;1511;-68
2023/09/21 11:12:28;;;;;;;;;;;22.80;57.30;;;;;;1514546;77;777;-68
2023/09/21 11:14:31;;;;;;;;;;;22.80;57.10;;;;;;1522899;77;850;-69
2023/09/21 11:16:33;;;;;;;;;;;22.80;56.90;;;;;;1513469;77;749;-67
2023/09/21 11:18:34;;;;;;;;;;;22.90;56.80;;;;;;1516187;76;1191;-68
2023/09/21 11:20:36;;;;;;;;;;;22.90;56.70;;;;;;1516193;78;701;-69
2023/09/21 11:22:39;;;;;;;;;;;22.80;56.50;;;;;;1523226;77;696;-69
2023/09/21 11:24:42;;;;;;;;;;;22.80;56.40;;;;;;1519271;78;1566;-68
2023/09/21 11:26:49;;;;;;;;;;;22.90;56.40;;;;;;1518515;77;793;-67
2023/09/21 11:28:52;;;;;;;;;;;22.80;56.20;;;;;;1510999;78;1946;-68
2023/09/21 11:30:56;;;;;;;;;;;22.80;56.00;;;;;;1519558;78;1998;-67
2023/09/21 11:32:58;;;;;;;;;;;22.90;56.00;;;;;;1522190;78;793;-68
2023/09/21 11:35:00;;;;;;;;;;;22.80;55.80;;;;;;1521320;77;734;-67
2023/09/21 11:37:03;;;;;;;;;;;22.80;55.80;;;;;;1515534;77;738;-67
2023/09/21 11:39:11;;;;;;;;;;;22.80;55.70;;;;;;1522559;77;1155;-69
2023/09/21 11:41:09;;;;;;;;;;;22.80;55.70;;;;;;1520490;76;1454;-67
2023/09/21 11:43:13;;;;;;;;;;;22.90;55.90;;;;;;1522197;77;798;-68
2023/09/21 11:45:19;;;;;;;;;;;22.80;55.70;;;;;;1525064;78;885;-68
2023/09/21 11:47:22;;;;;;;;;;;22.90;55.80;;;;;;1524536;78;1919;-70
2023/09/21 11:49:41;;;;;;;;;;;22.80;55.60;;;;;;1486914;78;1105;-69
2023/09/21 11:51:47;;;;;;;;;;;22.80;55.50;;;;;;1518555;76;1574;-67
2023/09/21 11:53:48;;;;;;;;;;;22.80;55.40;;;;;;1523913;78;745;-67
2023/09/21 11:55:50;;;;;;;;;;;22.80;55.30;;;;;;1517450;77;649;-68
2023/09/21 11:57:53;;;;;;;;;;;22.80;55.20;;;;;;1521063;78;1151;-69
2023/09/21 11:59:56;;;;;;;;;;;22.90;55.20;;;;;;1522964;77;604;-69
2023/09/21 12:01:59;;;;;;;;;;;22.90;55.10;;;;;;1517734;76;811;-69
2023/09/21 12:04:04;;;;;;;;;;;22.80;54.80;;;;;;1518942;78;755;-68
2023/09/21 12:06:06;;;;;;;;;;;22.80;54.80;;;;;;1519134;77;1673;-69
2023/09/21 12:08:10;;;;;;;;;;;22.80;54.60;;;;;;1523361;77;1917;-68
2023/09/21 12:10:13;;;;;;;;;;;22.90;54.50;;;;;;1521002;76;734;-67
2023/09/21 12:12:15;;;;;;;;;;;22.90;54.40;;;;;;1514670;77;797;-70
2023/09/21 12:14:17;;;;;;;;;;;22.90;54.30;;;;;;1523869;77;883;-68